sensor_id;sensor_type;location;lat;lon;timestamp;temperature;humidity
1337;DHT22;662;48.814;9.318;2023-07-29T00:01:30;20.40;82.60
1337;DHT22;662;48.814;9.318;2023-07-29T00:03:56;20.30;82.60
1337;DHT22;662;48.814;9.318;2023-07-29T00:06:22;20.40;82.90
1337;DHT22;662;48.814;9.318;2023-07-29T00:08:47;20.40;82.90
1337;DHT22;662;48.814;9.318;2023-07-29T00:11:16;20.30;82.90
1337;DHT22;662;48.814;9.318;2023-07-29T00:13:41;20.30;82.90
1337;DHT22;662;48.814;9.318;2023-07-29T00:16:07;20.30;82.90
1337;DHT22;662;48.814;9.318;2023-07-29T00:18:33;20.40;83.10
1337;DHT22;662;48.814;9.318;2023-07-29T00:20:58;20.30;83.00
1337;DHT22;662;48.814;9.318;2023-07-29T00:23:24;20.30;83.00
1337;DHT22;662;48.814;9.318;2023-07-29T00:25:50;20.40;83.10
1337;DHT22;662;48.814;9.318;2023-07-29T00:28:15;20.40;83.00
1337;DHT22;662;48.814;9.318;2023-07-29T00:30:41;20.40;82.90
1337;DHT22;662;48.814;9.318;2023-07-29T00:33:07;20.40;82.80
1337;DHT22;662;48.814;9.318;2023-07-29T00:35:33;20.30;82.70
1337;DHT22;662;48.814;9.318;2023-07-29T00:37:59;20.30;82.70
1337;DHT22;662;48.814;9.318;2023-07-29T00:40:27;20.30;82.80
1337;DHT22;662;48.814;9.318;2023-07-29T00:42:53;20.30;82.80
1337;DHT22;662;48.814;9.318;2023-07-29T00:45:19;20.40;82.80
1337;DHT22;662;48.814;9.318;2023-07-29T00:47:45;20.40;82.70
1337;DHT22;662;48.814;9.318;2023-07-29T00:50:12;20.40;82.70
1337;DHT22;662;48.814;9.318;2023-07-29T00:52:38;20.40;82.70
1337;DHT22;662;48.814;9.318;2023-07-29T00:55:05;20.30;82.60
1337;DHT22;662;48.814;9.318;2023-07-29T00:57:31;20.40;82.60
1337;DHT22;662;48.814;9.318;2023-07-29T00:59:58;20.40;82.70
1337;DHT22;662;48.814;9.318;2023-07-29T01:02:24;20.30;82.60
1337;DHT22;662;48.814;9.318;2023-07-29T01:04:57;20.30;82.60
1337;DHT22;662;48.814;9.318;2023-07-29T01:13:43;20.40;82.70
1337;DHT22;662;48.814;9.318;2023-07-29T01:16:04;20.30;82.40
1337;DHT22;662;48.814;9.318;2023-07-29T01:18:32;20.30;82.20
1337;DHT22;662;48.814;9.318;2023-07-29T01:21:04;20.30;82.30
1337;DHT22;662;48.814;9.318;2023-07-29T01:23:34;20.30;82.30
1337;DHT22;662;48.814;9.318;2023-07-29T01:26:00;20.30;82.30
1337;DHT22;662;48.814;9.318;2023-07-29T01:28:27;20.30;82.30
1337;DHT22;662;48.814;9.318;2023-07-29T01:31:10;20.30;82.30
1337;DHT22;662;48.814;9.318;2023-07-29T01:33:40;20.30;82.20
1337;DHT22;662;48.814;9.318;2023-07-29T01:36:21;20.20;82.00
1337;DHT22;662;48.814;9.318;2023-07-29T01:38:49;20.30;82.20
1337;DHT22;662;48.814;9.318;2023-07-29T01:41:17;20.30;82.20
1337;DHT22;662;48.814;9.318;2023-07-29T01:43:43;20.20;82.10
1337;DHT22;662;48.814;9.318;2023-07-29T01:46:13;20.20;82.00
1337;DHT22;662;48.814;9.318;2023-07-29T01:48:39;20.20;81.90
1337;DHT22;662;48.814;9.318;2023-07-29T01:51:05;20.20;82.00
1337;DHT22;662;48.814;9.318;2023-07-29T01:53:31;20.10;82.00
1337;DHT22;662;48.814;9.318;2023-07-29T01:55:57;20.20;82.10
1337;DHT22;662;48.814;9.318;2023-07-29T01:58:23;20.10;82.20
1337;DHT22;662;48.814;9.318;2023-07-29T02:00:49;20.10;82.40
1337;DHT22;662;48.814;9.318;2023-07-29T02:03:14;20.10;82.50
1337;DHT22;662;48.814;9.318;2023-07-29T02:05:40;20.10;82.50
1337;DHT22;662;48.814;9.318;2023-07-29T02:08:07;20.10;82.60
1337;DHT22;662;48.814;9.318;2023-07-29T02:10:33;20.10;82.60
1337;DHT22;662;48.814;9.318;2023-07-29T02:12:58;20.10;82.80
1337;DHT22;662;48.814;9.318;2023-07-29T02:15:24;20.10;82.90
1337;DHT22;662;48.814;9.318;2023-07-29T02:17:50;20.20;83.20
1337;DHT22;662;48.814;9.318;2023-07-29T02:20:17;20.10;83.00
1337;DHT22;662;48.814;9.318;2023-07-29T02:22:42;20.10;82.90
1337;DHT22;662;48.814;9.318;2023-07-29T02:25:08;20.10;82.90
1337;DHT22;662;48.814;9.318;2023-07-29T02:27:35;20.10;83.10
1337;DHT22;662;48.814;9.318;2023-07-29T02:30:01;20.10;83.20
1337;DHT22;662;48.814;9.318;2023-07-29T02:32:26;20.00;83.10
1337;DHT22;662;48.814;9.318;2023-07-29T02:34:52;20.10;83.50
1337;DHT22;662;48.814;9.318;2023-07-29T02:37:17;20.00;83.30
1337;DHT22;662;48.814;9.318;2023-07-29T02:39:43;20.00;83.40
1337;DHT22;662;48.814;9.318;2023-07-29T02:42:09;20.00;83.40
1337;DHT22;662;48.814;9.318;2023-07-29T02:44:34;20.00;83.50
1337;DHT22;662;48.814;9.318;2023-07-29T02:47:00;19.90;84.10
1337;DHT22;662;48.814;9.318;2023-07-29T02:49:26;19.90;83.50
1337;DHT22;662;48.814;9.318;2023-07-29T02:51:51;19.90;83.70
1337;DHT22;662;48.814;9.318;2023-07-29T02:54:17;19.90;83.70
1337;DHT22;662;48.814;9.318;2023-07-29T02:56:42;19.90;83.60
1337;DHT22;662;48.814;9.318;2023-07-29T02:59:08;19.90;83.70
1337;DHT22;662;48.814;9.318;2023-07-29T03:01:34;19.90;83.80
1337;DHT22;662;48.814;9.318;2023-07-29T03:03:59;19.90;83.90
1337;DHT22;662;48.814;9.318;2023-07-29T03:06:25;19.90;83.80
1337;DHT22;662;48.814;9.318;2023-07-29T03:08:51;19.90;83.60
1337;DHT22;662;48.814;9.318;2023-07-29T03:11:17;19.90;83.70
1337;DHT22;662;48.814;9.318;2023-07-29T03:13:43;19.90;83.70
1337;DHT22;662;48.814;9.318;2023-07-29T03:16:11;19.90;83.80
1337;DHT22;662;48.814;9.318;2023-07-29T03:18:37;19.90;83.90
1337;DHT22;662;48.814;9.318;2023-07-29T03:21:03;19.90;83.90
1337;DHT22;662;48.814;9.318;2023-07-29T03:23:30;19.80;83.90
1337;DHT22;662;48.814;9.318;2023-07-29T03:25:56;19.80;83.80
1337;DHT22;662;48.814;9.318;2023-07-29T03:28:28;19.90;83.80
1337;DHT22;662;48.814;9.318;2023-07-29T03:30:55;19.80;83.70
1337;DHT22;662;48.814;9.318;2023-07-29T03:33:21;19.80;83.90
1337;DHT22;662;48.814;9.318;2023-07-29T03:35:47;19.80;83.90
1337;DHT22;662;48.814;9.318;2023-07-29T03:38:12;19.80;83.90
1337;DHT22;662;48.814;9.318;2023-07-29T03:40:39;19.80;83.90
1337;DHT22;662;48.814;9.318;2023-07-29T03:43:04;19.80;83.80
1337;DHT22;662;48.814;9.318;2023-07-29T03:45:31;19.80;83.80
1337;DHT22;662;48.814;9.318;2023-07-29T03:47:56;19.80;83.80
1337;DHT22;662;48.814;9.318;2023-07-29T03:50:22;19.80;83.80
1337;DHT22;662;48.814;9.318;2023-07-29T03:52:48;19.80;84.00
1337;DHT22;662;48.814;9.318;2023-07-29T03:55:13;19.80;84.10
1337;DHT22;662;48.814;9.318;2023-07-29T03:57:39;19.80;84.10
1337;DHT22;662;48.814;9.318;2023-07-29T04:00:05;19.80;84.10
1337;DHT22;662;48.814;9.318;2023-07-29T04:02:31;19.80;84.20
1337;DHT22;662;48.814;9.318;2023-07-29T04:04:57;19.80;84.30
1337;DHT22;662;48.814;9.318;2023-07-29T04:07:22;19.80;84.40
1337;DHT22;662;48.814;9.318;2023-07-29T04:09:48;19.80;84.50
1337;DHT22;662;48.814;9.318;2023-07-29T04:12:14;19.80;84.60
1337;DHT22;662;48.814;9.318;2023-07-29T04:14:40;19.80;84.70
1337;DHT22;662;48.814;9.318;2023-07-29T04:17:07;19.80;84.80
1337;DHT22;662;48.814;9.318;2023-07-29T04:19:32;19.90;84.90
1337;DHT22;662;48.814;9.318;2023-07-29T04:21:58;19.90;84.80
1337;DHT22;662;48.814;9.318;2023-07-29T04:24:24;19.90;84.70
1337;DHT22;662;48.814;9.318;2023-07-29T04:26:49;19.90;84.70
1337;DHT22;662;48.814;9.318;2023-07-29T04:29:15;19.90;84.80
1337;DHT22;662;48.814;9.318;2023-07-29T04:31:40;19.90;84.90
1337;DHT22;662;48.814;9.318;2023-07-29T04:34:06;19.90;85.00
1337;DHT22;662;48.814;9.318;2023-07-29T04:36:32;19.90;85.10
1337;DHT22;662;48.814;9.318;2023-07-29T04:38:58;19.90;85.20
1337;DHT22;662;48.814;9.318;2023-07-29T04:41:23;19.90;85.20
1337;DHT22;662;48.814;9.318;2023-07-29T04:43:49;19.90;85.00
1337;DHT22;662;48.814;9.318;2023-07-29T04:46:15;19.90;84.90
1337;DHT22;662;48.814;9.318;2023-07-29T04:48:41;19.90;85.00
1337;DHT22;662;48.814;9.318;2023-07-29T04:51:06;19.90;85.20
1337;DHT22;662;48.814;9.318;2023-07-29T04:53:32;19.90;85.50
1337;DHT22;662;48.814;9.318;2023-07-29T04:55:58;19.90;85.50
1337;DHT22;662;48.814;9.318;2023-07-29T04:58:23;19.90;85.60
1337;DHT22;662;48.814;9.318;2023-07-29T05:00:49;19.90;85.80
1337;DHT22;662;48.814;9.318;2023-07-29T05:03:15;19.80;85.90
1337;DHT22;662;48.814;9.318;2023-07-29T05:05:40;19.80;86.00
1337;DHT22;662;48.814;9.318;2023-07-29T05:08:06;19.80;86.20
1337;DHT22;662;48.814;9.318;2023-07-29T05:10:31;19.80;86.40
1337;DHT22;662;48.814;9.318;2023-07-29T05:12:57;19.80;86.70
1337;DHT22;662;48.814;9.318;2023-07-29T05:15:23;19.80;86.80
1337;DHT22;662;48.814;9.318;2023-07-29T05:17:48;19.80;86.90
1337;DHT22;662;48.814;9.318;2023-07-29T05:20:14;19.80;87.70
1337;DHT22;662;48.814;9.318;2023-07-29T05:22:39;19.90;87.20
1337;DHT22;662;48.814;9.318;2023-07-29T05:25:05;19.90;87.10
1337;DHT22;662;48.814;9.318;2023-07-29T05:27:31;19.90;87.10
1337;DHT22;662;48.814;9.318;2023-07-29T05:29:57;19.90;87.20
1337;DHT22;662;48.814;9.318;2023-07-29T05:32:22;19.90;87.30
1337;DHT22;662;48.814;9.318;2023-07-29T05:34:48;20.00;87.40
1337;DHT22;662;48.814;9.318;2023-07-29T05:37:14;20.00;87.60
1337;DHT22;662;48.814;9.318;2023-07-29T05:39:39;20.00;87.60
1337;DHT22;662;48.814;9.318;2023-07-29T05:42:05;20.00;87.60
1337;DHT22;662;48.814;9.318;2023-07-29T05:44:31;20.00;87.70
1337;DHT22;662;48.814;9.318;2023-07-29T05:46:57;20.00;87.60
1337;DHT22;662;48.814;9.318;2023-07-29T05:49:23;20.10;87.60
1337;DHT22;662;48.814;9.318;2023-07-29T05:51:48;20.10;87.60
1337;DHT22;662;48.814;9.318;2023-07-29T05:54:17;20.10;87.60
1337;DHT22;662;48.814;9.318;2023-07-29T05:56:43;20.10;87.40
1337;DHT22;662;48.814;9.318;2023-07-29T05:59:08;20.20;87.30
1337;DHT22;662;48.814;9.318;2023-07-29T06:01:34;20.20;87.20
1337;DHT22;662;48.814;9.318;2023-07-29T06:04:00;20.20;86.80
1337;DHT22;662;48.814;9.318;2023-07-29T06:06:27;20.30;86.90
1337;DHT22;662;48.814;9.318;2023-07-29T06:08:53;20.40;86.80
1337;DHT22;662;48.814;9.318;2023-07-29T06:11:18;20.40;86.80
1337;DHT22;662;48.814;9.318;2023-07-29T06:13:47;20.50;86.80
1337;DHT22;662;48.814;9.318;2023-07-29T06:16:13;20.60;86.80
1337;DHT22;662;48.814;9.318;2023-07-29T06:18:39;20.70;86.70
1337;DHT22;662;48.814;9.318;2023-07-29T06:21:04;20.80;86.80
1337;DHT22;662;48.814;9.318;2023-07-29T06:23:33;20.90;86.50
1337;DHT22;662;48.814;9.318;2023-07-29T06:25:59;21.00;86.30
1337;DHT22;662;48.814;9.318;2023-07-29T06:28:26;21.10;85.90
1337;DHT22;662;48.814;9.318;2023-07-29T06:30:52;21.10;85.50
1337;DHT22;662;48.814;9.318;2023-07-29T06:33:18;21.20;85.10
1337;DHT22;662;48.814;9.318;2023-07-29T06:35:43;21.30;84.80
1337;DHT22;662;48.814;9.318;2023-07-29T06:38:09;21.40;84.60
1337;DHT22;662;48.814;9.318;2023-07-29T06:40:35;21.40;84.30
1337;DHT22;662;48.814;9.318;2023-07-29T06:43:00;21.50;84.10
1337;DHT22;662;48.814;9.318;2023-07-29T06:45:26;21.50;83.20
1337;DHT22;662;48.814;9.318;2023-07-29T06:47:52;21.60;82.00
1337;DHT22;662;48.814;9.318;2023-07-29T06:50:17;21.50;80.90
1337;DHT22;662;48.814;9.318;2023-07-29T06:52:43;21.50;80.70
1337;DHT22;662;48.814;9.318;2023-07-29T06:55:09;21.40;80.70
1337;DHT22;662;48.814;9.318;2023-07-29T06:57:34;21.40;80.60
1337;DHT22;662;48.814;9.318;2023-07-29T07:00:00;21.30;80.00
1337;DHT22;662;48.814;9.318;2023-07-29T07:02:26;21.30;80.30
1337;DHT22;662;48.814;9.318;2023-07-29T07:04:52;21.20;80.60
1337;DHT22;662;48.814;9.318;2023-07-29T07:07:17;21.10;80.80
1337;DHT22;662;48.814;9.318;2023-07-29T07:09:43;21.10;81.40
1337;DHT22;662;48.814;9.318;2023-07-29T07:12:08;21.00;82.40
1337;DHT22;662;48.814;9.318;2023-07-29T07:14:34;20.80;82.00
1337;DHT22;662;48.814;9.318;2023-07-29T07:16:59;20.80;82.60
1337;DHT22;662;48.814;9.318;2023-07-29T07:19:25;20.70;83.10
1337;DHT22;662;48.814;9.318;2023-07-29T07:21:51;20.60;84.00
1337;DHT22;662;48.814;9.318;2023-07-29T07:24:16;20.50;84.90
1337;DHT22;662;48.814;9.318;2023-07-29T07:26:42;20.40;86.00
1337;DHT22;662;48.814;9.318;2023-07-29T07:29:07;20.30;87.20
1337;DHT22;662;48.814;9.318;2023-07-29T07:31:33;20.30;88.10
1337;DHT22;662;48.814;9.318;2023-07-29T07:34:00;20.30;89.00
1337;DHT22;662;48.814;9.318;2023-07-29T07:36:27;20.30;89.60
1337;DHT22;662;48.814;9.318;2023-07-29T07:38:53;20.30;90.00
1337;DHT22;662;48.814;9.318;2023-07-29T07:41:18;20.30;90.10
1337;DHT22;662;48.814;9.318;2023-07-29T07:43:44;20.30;90.30
1337;DHT22;662;48.814;9.318;2023-07-29T07:46:09;20.30;90.30
1337;DHT22;662;48.814;9.318;2023-07-29T07:48:36;20.40;90.30
1337;DHT22;662;48.814;9.318;2023-07-29T07:51:13;20.50;90.30
1337;DHT22;662;48.814;9.318;2023-07-29T07:53:39;20.60;90.20
1337;DHT22;662;48.814;9.318;2023-07-29T07:56:06;20.70;90.00
1337;DHT22;662;48.814;9.318;2023-07-29T07:58:32;20.80;89.50
1337;DHT22;662;48.814;9.318;2023-07-29T08:01:07;20.80;88.90
1337;DHT22;662;48.814;9.318;2023-07-29T08:03:33;20.90;88.50
1337;DHT22;662;48.814;9.318;2023-07-29T08:05:59;20.90;88.40
1337;DHT22;662;48.814;9.318;2023-07-29T08:08:25;21.00;88.10
1337;DHT22;662;48.814;9.318;2023-07-29T08:10:53;21.00;87.70
1337;DHT22;662;48.814;9.318;2023-07-29T08:13:20;21.10;87.40
1337;DHT22;662;48.814;9.318;2023-07-29T08:15:47;21.20;87.20
1337;DHT22;662;48.814;9.318;2023-07-29T08:18:13;21.30;86.50
1337;DHT22;662;48.814;9.318;2023-07-29T08:20:39;21.30;85.90
1337;DHT22;662;48.814;9.318;2023-07-29T08:23:04;21.30;85.60
1337;DHT22;662;48.814;9.318;2023-07-29T08:25:30;21.40;85.40
1337;DHT22;662;48.814;9.318;2023-07-29T08:27:56;21.50;84.90
1337;DHT22;662;48.814;9.318;2023-07-29T08:30:26;21.60;84.60
1337;DHT22;662;48.814;9.318;2023-07-29T08:32:52;21.80;84.30
1337;DHT22;662;48.814;9.318;2023-07-29T08:35:17;21.90;83.50
1337;DHT22;662;48.814;9.318;2023-07-29T08:37:43;21.90;82.20
1337;DHT22;662;48.814;9.318;2023-07-29T08:40:09;22.00;82.00
1337;DHT22;662;48.814;9.318;2023-07-29T08:42:36;22.00;81.50
1337;DHT22;662;48.814;9.318;2023-07-29T08:45:06;22.10;81.10
1337;DHT22;662;48.814;9.318;2023-07-29T08:47:33;22.20;81.00
1337;DHT22;662;48.814;9.318;2023-07-29T08:49:59;22.30;80.90
1337;DHT22;662;48.814;9.318;2023-07-29T08:52:26;22.50;80.30
1337;DHT22;662;48.814;9.318;2023-07-29T08:54:52;22.60;79.10
1337;DHT22;662;48.814;9.318;2023-07-29T08:57:19;22.70;77.40
1337;DHT22;662;48.814;9.318;2023-07-29T08:59:45;22.80;76.60
1337;DHT22;662;48.814;9.318;2023-07-29T09:02:11;22.90;76.00
1337;DHT22;662;48.814;9.318;2023-07-29T09:04:37;23.00;75.80
1337;DHT22;662;48.814;9.318;2023-07-29T09:07:03;23.10;74.70
1337;DHT22;662;48.814;9.318;2023-07-29T09:09:29;23.20;75.00
1337;DHT22;662;48.814;9.318;2023-07-29T09:11:55;23.50;75.60
1337;DHT22;662;48.814;9.318;2023-07-29T09:14:21;23.70;75.50
1337;DHT22;662;48.814;9.318;2023-07-29T09:16:46;23.90;74.30
1337;DHT22;662;48.814;9.318;2023-07-29T09:19:12;24.20;73.30
1337;DHT22;662;48.814;9.318;2023-07-29T09:21:39;24.40;71.00
1337;DHT22;662;48.814;9.318;2023-07-29T09:24:05;24.50;70.60
1337;DHT22;662;48.814;9.318;2023-07-29T09:26:33;24.70;70.20
1337;DHT22;662;48.814;9.318;2023-07-29T09:28:59;24.70;69.20
1337;DHT22;662;48.814;9.318;2023-07-29T09:31:27;24.60;68.80
1337;DHT22;662;48.814;9.318;2023-07-29T09:34:02;24.60;68.40
1337;DHT22;662;48.814;9.318;2023-07-29T09:36:31;24.60;68.70
1337;DHT22;662;48.814;9.318;2023-07-29T09:38:57;24.60;68.00
1337;DHT22;662;48.814;9.318;2023-07-29T09:41:24;24.70;68.60
1337;DHT22;662;48.814;9.318;2023-07-29T09:43:56;24.70;67.80
1337;DHT22;662;48.814;9.318;2023-07-29T09:46:24;24.80;68.30
1337;DHT22;662;48.814;9.318;2023-07-29T09:48:54;24.90;69.00
1337;DHT22;662;48.814;9.318;2023-07-29T09:51:24;25.20;69.40
1337;DHT22;662;48.814;9.318;2023-07-29T09:53:50;25.40;67.30
1337;DHT22;662;48.814;9.318;2023-07-29T09:56:17;25.60;65.10
1337;DHT22;662;48.814;9.318;2023-07-29T09:58:44;25.70;63.80
1337;DHT22;662;48.814;9.318;2023-07-29T10:01:11;25.70;62.90
1337;DHT22;662;48.814;9.318;2023-07-29T10:03:37;25.80;62.60
1337;DHT22;662;48.814;9.318;2023-07-29T10:06:04;26.10;62.30
1337;DHT22;662;48.814;9.318;2023-07-29T10:08:31;26.50;60.80
1337;DHT22;662;48.814;9.318;2023-07-29T10:11:07;26.80;60.30
1337;DHT22;662;48.814;9.318;2023-07-29T10:13:34;27.40;59.30
1337;DHT22;662;48.814;9.318;2023-07-29T10:16:00;28.00;57.30
1337;DHT22;662;48.814;9.318;2023-07-29T10:18:30;28.50;54.50
1337;DHT22;662;48.814;9.318;2023-07-29T10:20:58;29.10;54.40
1337;DHT22;662;48.814;9.318;2023-07-29T10:23:25;29.80;52.70
1337;DHT22;662;48.814;9.318;2023-07-29T10:26:05;30.50;50.50
1337;DHT22;662;48.814;9.318;2023-07-29T10:28:32;30.70;49.10
1337;DHT22;662;48.814;9.318;2023-07-29T10:30:59;30.70;48.40
1337;DHT22;662;48.814;9.318;2023-07-29T10:33:25;30.40;47.90
1337;DHT22;662;48.814;9.318;2023-07-29T10:35:52;30.10;49.30
1337;DHT22;662;48.814;9.318;2023-07-29T10:38:21;29.70;50.50
1337;DHT22;662;48.814;9.318;2023-07-29T10:40:57;29.20;51.60
1337;DHT22;662;48.814;9.318;2023-07-29T10:43:34;28.70;53.00
1337;DHT22;662;48.814;9.318;2023-07-29T10:48:43;27.70;55.70
1337;DHT22;662;48.814;9.318;2023-07-29T10:51:29;27.30;56.70
1337;DHT22;662;48.814;9.318;2023-07-29T10:54:03;26.80;58.10
1337;DHT22;662;48.814;9.318;2023-07-29T10:56:36;26.60;59.80
1337;DHT22;662;48.814;9.318;2023-07-29T11:01:39;25.90;60.00
1337;DHT22;662;48.814;9.318;2023-07-29T11:12:51;25.80;62.40
1337;DHT22;662;48.814;9.318;2023-07-29T11:14:52;26.10;61.90
1337;DHT22;662;48.814;9.318;2023-07-29T11:17:17;26.40;60.50
1337;DHT22;662;48.814;9.318;2023-07-29T11:19:44;26.50;59.80
1337;DHT22;662;48.814;9.318;2023-07-29T11:22:10;26.90;59.60
1337;DHT22;662;48.814;9.318;2023-07-29T11:24:35;27.00;58.50
1337;DHT22;662;48.814;9.318;2023-07-29T11:27:01;27.10;58.20
1337;DHT22;662;48.814;9.318;2023-07-29T11:29:27;27.20;58.00
1337;DHT22;662;48.814;9.318;2023-07-29T11:31:52;27.40;57.60
1337;DHT22;662;48.814;9.318;2023-07-29T11:34:18;27.40;56.80
1337;DHT22;662;48.814;9.318;2023-07-29T11:36:46;27.50;56.80
1337;DHT22;662;48.814;9.318;2023-07-29T11:39:11;27.60;57.00
1337;DHT22;662;48.814;9.318;2023-07-29T11:41:37;27.60;56.70
1337;DHT22;662;48.814;9.318;2023-07-29T11:44:03;27.60;56.90
1337;DHT22;662;48.814;9.318;2023-07-29T11:46:28;27.60;57.20
1337;DHT22;662;48.814;9.318;2023-07-29T11:48:54;27.50;57.10
1337;DHT22;662;48.814;9.318;2023-07-29T11:51:21;27.50;57.10
1337;DHT22;662;48.814;9.318;2023-07-29T11:53:47;27.50;56.70
1337;DHT22;662;48.814;9.318;2023-07-29T11:56:14;27.60;56.50
1337;DHT22;662;48.814;9.318;2023-07-29T11:58:40;27.60;56.50
1337;DHT22;662;48.814;9.318;2023-07-29T12:01:05;27.80;56.40
1337;DHT22;662;48.814;9.318;2023-07-29T12:03:31;28.00;55.60
1337;DHT22;662;48.814;9.318;2023-07-29T12:05:57;28.30;54.90
1337;DHT22;662;48.814;9.318;2023-07-29T12:08:23;28.70;54.30
1337;DHT22;662;48.814;9.318;2023-07-29T12:10:49;29.20;53.60
1337;DHT22;662;48.814;9.318;2023-07-29T12:13:14;29.90;52.50
1337;DHT22;662;48.814;9.318;2023-07-29T12:15:40;30.40;50.60
1337;DHT22;662;48.814;9.318;2023-07-29T12:18:06;31.00;49.70
1337;DHT22;662;48.814;9.318;2023-07-29T12:20:32;31.60;48.50
1337;DHT22;662;48.814;9.318;2023-07-29T12:22:59;32.20;47.80
1337;DHT22;662;48.814;9.318;2023-07-29T12:25:27;32.80;45.30
1337;DHT22;662;48.814;9.318;2023-07-29T12:27:52;33.20;44.90
1337;DHT22;662;48.814;9.318;2023-07-29T12:30:24;33.80;44.20
1337;DHT22;662;48.814;9.318;2023-07-29T12:32:53;34.10;42.50
1337;DHT22;662;48.814;9.318;2023-07-29T12:35:18;34.40;41.80
1337;DHT22;662;48.814;9.318;2023-07-29T12:37:44;34.70;41.90
1337;DHT22;662;48.814;9.318;2023-07-29T12:40:30;35.10;41.80
1337;DHT22;662;48.814;9.318;2023-07-29T12:42:56;35.50;40.70
1337;DHT22;662;48.814;9.318;2023-07-29T12:45:22;35.60;39.40
1337;DHT22;662;48.814;9.318;2023-07-29T12:47:51;35.80;37.90
1337;DHT22;662;48.814;9.318;2023-07-29T12:50:17;35.70;37.50
1337;DHT22;662;48.814;9.318;2023-07-29T12:52:43;35.60;37.90
1337;DHT22;662;48.814;9.318;2023-07-29T12:55:08;35.80;38.30
1337;DHT22;662;48.814;9.318;2023-07-29T12:57:39;35.90;36.10
1337;DHT22;662;48.814;9.318;2023-07-29T13:00:05;35.40;36.10
1337;DHT22;662;48.814;9.318;2023-07-29T13:02:31;35.20;35.20
1337;DHT22;662;48.814;9.318;2023-07-29T13:04:57;35.00;35.00
1337;DHT22;662;48.814;9.318;2023-07-29T13:07:22;34.90;35.10
1337;DHT22;662;48.814;9.318;2023-07-29T13:09:48;34.90;35.20
1337;DHT22;662;48.814;9.318;2023-07-29T13:12:14;34.70;33.40
1337;DHT22;662;48.814;9.318;2023-07-29T13:14:39;34.60;34.00
1337;DHT22;662;48.814;9.318;2023-07-29T13:17:05;34.70;35.50
1337;DHT22;662;48.814;9.318;2023-07-29T13:19:31;35.10;36.30
1337;DHT22;662;48.814;9.318;2023-07-29T13:21:56;35.40;35.60
1337;DHT22;662;48.814;9.318;2023-07-29T13:24:22;35.70;35.00
1337;DHT22;662;48.814;9.318;2023-07-29T13:26:47;35.90;34.50
1337;DHT22;662;48.814;9.318;2023-07-29T13:29:13;36.10;34.50
1337;DHT22;662;48.814;9.318;2023-07-29T13:31:38;36.00;33.60
1337;DHT22;662;48.814;9.318;2023-07-29T13:34:04;35.80;32.60
1337;DHT22;662;48.814;9.318;2023-07-29T13:36:29;35.50;33.50
1337;DHT22;662;48.814;9.318;2023-07-29T13:38:55;35.20;34.60
1337;DHT22;662;48.814;9.318;2023-07-29T13:41:21;35.00;35.00
1337;DHT22;662;48.814;9.318;2023-07-29T13:43:46;34.60;35.30
1337;DHT22;662;48.814;9.318;2023-07-29T13:46:12;34.00;35.60
1337;DHT22;662;48.814;9.318;2023-07-29T13:48:37;33.40;36.50
1337;DHT22;662;48.814;9.318;2023-07-29T13:51:03;32.90;37.20
1337;DHT22;662;48.814;9.318;2023-07-29T13:53:29;32.50;38.30
1337;DHT22;662;48.814;9.318;2023-07-29T13:55:54;32.10;39.00
1337;DHT22;662;48.814;9.318;2023-07-29T13:58:20;31.90;39.90
1337;DHT22;662;48.814;9.318;2023-07-29T14:00:45;31.70;39.60
1337;DHT22;662;48.814;9.318;2023-07-29T14:03:11;31.40;39.90
1337;DHT22;662;48.814;9.318;2023-07-29T14:05:37;31.20;40.50
1337;DHT22;662;48.814;9.318;2023-07-29T14:08:02;30.90;41.20
1337;DHT22;662;48.814;9.318;2023-07-29T14:10:28;30.80;41.40
1337;DHT22;662;48.814;9.318;2023-07-29T14:12:53;30.60;41.30
1337;DHT22;662;48.814;9.318;2023-07-29T14:15:19;30.50;41.90
1337;DHT22;662;48.814;9.318;2023-07-29T14:17:45;30.40;42.00
1337;DHT22;662;48.814;9.318;2023-07-29T14:20:11;30.30;42.00
1337;DHT22;662;48.814;9.318;2023-07-29T14:22:36;30.20;42.50
1337;DHT22;662;48.814;9.318;2023-07-29T14:25:02;30.20;42.80
1337;DHT22;662;48.814;9.318;2023-07-29T14:27:28;30.20;42.80
1337;DHT22;662;48.814;9.318;2023-07-29T14:29:56;30.30;42.90
1337;DHT22;662;48.814;9.318;2023-07-29T14:32:22;30.80;42.90
1337;DHT22;662;48.814;9.318;2023-07-29T14:34:48;31.30;42.10
1337;DHT22;662;48.814;9.318;2023-07-29T14:37:14;31.50;41.50
1337;DHT22;662;48.814;9.318;2023-07-29T14:39:40;31.30;41.40
1337;DHT22;662;48.814;9.318;2023-07-29T14:42:05;31.20;41.80
1337;DHT22;662;48.814;9.318;2023-07-29T14:44:32;30.90;41.70
1337;DHT22;662;48.814;9.318;2023-07-29T14:46:57;30.70;41.90
1337;DHT22;662;48.814;9.318;2023-07-29T14:49:23;30.50;42.30
1337;DHT22;662;48.814;9.318;2023-07-29T14:51:49;30.30;42.50
1337;DHT22;662;48.814;9.318;2023-07-29T14:54:14;30.10;42.20
1337;DHT22;662;48.814;9.318;2023-07-29T14:56:40;29.80;42.80
1337;DHT22;662;48.814;9.318;2023-07-29T14:59:05;29.60;43.10
1337;DHT22;662;48.814;9.318;2023-07-29T15:01:31;29.50;43.30
1337;DHT22;662;48.814;9.318;2023-07-29T15:03:57;29.30;44.00
1337;DHT22;662;48.814;9.318;2023-07-29T15:06:23;29.20;44.30
1337;DHT22;662;48.814;9.318;2023-07-29T15:08:48;29.00;44.60
1337;DHT22;662;48.814;9.318;2023-07-29T15:11:14;28.80;44.90
1337;DHT22;662;48.814;9.318;2023-07-29T15:13:40;28.60;45.20
1337;DHT22;662;48.814;9.318;2023-07-29T15:16:05;28.50;45.70
1337;DHT22;662;48.814;9.318;2023-07-29T15:18:31;28.40;46.60
1337;DHT22;662;48.814;9.318;2023-07-29T15:20:59;28.40;46.20
1337;DHT22;662;48.814;9.318;2023-07-29T15:23:25;28.50;46.30
1337;DHT22;662;48.814;9.318;2023-07-29T15:25:51;28.60;46.40
1337;DHT22;662;48.814;9.318;2023-07-29T15:28:16;28.60;46.30
1337;DHT22;662;48.814;9.318;2023-07-29T15:30:42;28.70;46.00
1337;DHT22;662;48.814;9.318;2023-07-29T15:33:08;28.70;45.90
1337;DHT22;662;48.814;9.318;2023-07-29T15:35:38;28.80;46.40
1337;DHT22;662;48.814;9.318;2023-07-29T15:38:07;28.80;46.60
1337;DHT22;662;48.814;9.318;2023-07-29T15:40:33;28.80;46.50
1337;DHT22;662;48.814;9.318;2023-07-29T15:42:58;28.80;46.30
1337;DHT22;662;48.814;9.318;2023-07-29T15:45:24;28.80;46.20
1337;DHT22;662;48.814;9.318;2023-07-29T15:47:49;28.80;46.20
1337;DHT22;662;48.814;9.318;2023-07-29T15:50:15;28.90;46.20
1337;DHT22;662;48.814;9.318;2023-07-29T15:52:41;29.00;46.00
1337;DHT22;662;48.814;9.318;2023-07-29T15:55:09;29.00;45.90
1337;DHT22;662;48.814;9.318;2023-07-29T15:57:35;28.90;45.80
1337;DHT22;662;48.814;9.318;2023-07-29T16:00:00;28.80;45.30
1337;DHT22;662;48.814;9.318;2023-07-29T16:02:26;28.70;45.60
1337;DHT22;662;48.814;9.318;2023-07-29T16:04:54;28.60;45.90
1337;DHT22;662;48.814;9.318;2023-07-29T16:07:20;28.60;45.90
1337;DHT22;662;48.814;9.318;2023-07-29T16:09:45;28.50;46.10
1337;DHT22;662;48.814;9.318;2023-07-29T16:12:11;28.50;46.50
1337;DHT22;662;48.814;9.318;2023-07-29T16:14:37;28.40;45.90
1337;DHT22;662;48.814;9.318;2023-07-29T16:17:02;28.30;46.10
1337;DHT22;662;48.814;9.318;2023-07-29T16:19:28;28.20;46.60
1337;DHT22;662;48.814;9.318;2023-07-29T16:21:54;28.20;46.60
1337;DHT22;662;48.814;9.318;2023-07-29T16:24:20;28.00;46.30
1337;DHT22;662;48.814;9.318;2023-07-29T16:26:46;28.00;46.60
1337;DHT22;662;48.814;9.318;2023-07-29T16:29:12;28.00;46.90
1337;DHT22;662;48.814;9.318;2023-07-29T16:31:37;27.90;47.00